Time;durP1;ratioP1;P1;durP2;ratioP2;P2;SDS_P1;SDS_P2;PMS_P1;PMS_P2;Temp;Humidity;BMP_temperature;BMP_pressure;BME280_temperature;BME280_humidity;BME280_pressure;Samples;Min_cycle;Max_cycle;Signal;HPM_P1;HPM_P2
2022/01/13 00:00:58;;;;;;;;;;;21.70;43.90;;;;;;6303991;28;19955;-46
2022/01/13 00:04:00;;;;;;;;;;;22.10;44.20;;;;;;6314655;27;19924;-48
2022/01/13 00:07:01;;;;;;;;;;;21.90;44.00;;;;;;6308791;28;20046;-48
2022/01/13 00:10:06;;;;;;;;;;;21.60;43.90;;;;;;6317943;28;20855;-48
2022/01/13 00:13:09;;;;;;;;;;;21.80;43.90;;;;;;6314904;28;19923;-47
2022/01/13 00:16:26;;;;;;;;;;;21.70;43.90;;;;;;6301720;28;19927;-46
2022/01/13 00:19:35;;;;;;;;;;;21.80;43.90;;;;;;6312324;28;19923;-50
2022/01/13 00:22:48;;;;;;;;;;;22.10;44.10;;;;;;6300324;28;20683;-51
2022/01/13 00:25:54;;;;;;;;;;;21.90;43.90;;;;;;6320910;28;19970;-47
2022/01/13 00:28:57;;;;;;;;;;;22.10;44.20;;;;;;6318384;28;19927;-44
2022/01/13 00:31:58;;;;;;;;;;;21.60;43.80;;;;;;6316630;28;20006;-49
2022/01/13 00:35:00;;;;;;;;;;;21.60;44.50;;;;;;6315511;28;20013;-45
2022/01/13 00:38:01;;;;;;;;;;;21.50;43.90;;;;;;6305329;28;20024;-49
2022/01/13 00:41:03;;;;;;;;;;;21.80;43.90;;;;;;6306375;28;20046;-51
2022/01/13 00:44:08;;;;;;;;;;;21.80;43.90;;;;;;6316071;28;19924;-48
2022/01/13 00:47:11;;;;;;;;;;;21.60;43.80;;;;;;6293596;28;19938;-48
2022/01/13 00:50:12;;;;;;;;;;;21.80;43.80;;;;;;6313627;28;19957;-44
2022/01/13 00:53:14;;;;;;;;;;;21.80;43.80;;;;;;6312809;28;19927;-48
2022/01/13 00:56:16;;;;;;;;;;;21.70;43.80;;;;;;6298986;28;19928;-45
2022/01/13 00:59:18;;;;;;;;;;;21.90;44.00;;;;;;6291428;28;19920;-48
2022/01/13 01:02:19;;;;;;;;;;;21.60;43.80;;;;;;6317620;28;20718;-48
2022/01/13 01:05:21;;;;;;;;;;;21.60;43.80;;;;;;6317572;28;19928;-51
2022/01/13 01:08:23;;;;;;;;;;;22.10;44.00;;;;;;6317445;28;20066;-51
2022/01/13 01:11:25;;;;;;;;;;;21.70;43.80;;;;;;6313278;28;20104;-51
2022/01/13 01:14:29;;;;;;;;;;;22.00;43.90;;;;;;6316516;28;20112;-51
2022/01/13 01:17:30;;;;;;;;;;;21.50;43.70;;;;;;6320074;28;19927;-48
2022/01/13 01:20:45;;;;;;;;;;;21.60;43.90;;;;;;6318193;28;20105;-46
2022/01/13 01:24:10;;;;;;;;;;;21.40;43.70;;;;;;6308522;28;20027;-46
2022/01/13 01:27:18;;;;;;;;;;;21.60;43.90;;;;;;6316809;28;20034;-49
2022/01/13 01:30:28;;;;;;;;;;;21.50;43.70;;;;;;6312957;28;21205;-51
2022/01/13 01:33:30;;;;;;;;;;;21.40;43.60;;;;;;6314845;28;19924;-44
2022/01/13 01:36:32;;;;;;;;;;;21.60;43.70;;;;;;6317815;28;19959;-49
2022/01/13 01:39:34;;;;;;;;;;;21.60;43.70;;;;;;6319618;28;19923;-49
2022/01/13 01:42:36;;;;;;;;;;;21.60;43.70;;;;;;6321544;28;19963;-45
2022/01/13 01:45:44;;;;;;;;;;;21.50;43.60;;;;;;6294202;28;20168;-46
2022/01/13 01:48:45;;;;;;;;;;;21.90;43.80;;;;;;6314824;28;19939;-50
2022/01/13 01:51:47;;;;;;;;;;;21.80;43.80;;;;;;6299518;28;20356;-45
2022/01/13 01:54:49;;;;;;;;;;;21.40;43.50;;;;;;6312409;28;20513;-49
2022/01/13 01:57:51;;;;;;;;;;;21.50;43.60;;;;;;6289224;28;20724;-49
2022/01/13 02:00:54;;;;;;;;;;;21.50;44.20;;;;;;6291103;28;20269;-49
2022/01/13 02:03:56;;;;;;;;;;;21.80;43.80;;;;;;6310729;28;20615;-51
2022/01/13 02:07:00;;;;;;;;;;;21.60;43.70;;;;;;6312751;28;20421;-44
2022/01/13 02:10:01;;;;;;;;;;;21.80;43.80;;;;;;6293471;28;19928;-48
2022/01/13 02:13:06;;;;;;;;;;;21.60;43.70;;;;;;6313377;28;20355;-46
2022/01/13 02:16:25;;;;;;;;;;;21.50;43.60;;;;;;6311304;28;19971;-46
2022/01/13 02:19:26;;;;;;;;;;;21.70;43.70;;;;;;6309108;28;19925;-45
2022/01/13 02:22:28;;;;;;;;;;;21.70;43.70;;;;;;6306992;28;19923;-46
2022/01/13 02:25:30;;;;;;;;;;;21.50;43.60;;;;;;6312628;28;23313;-47
2022/01/13 02:28:31;;;;;;;;;;;21.40;43.60;;;;;;6313006;28;19970;-53
2022/01/13 02:31:32;;;;;;;;;;;21.70;43.70;;;;;;6305502;28;19935;-51
2022/01/13 02:34:34;;;;;;;;;;;21.40;43.50;;;;;;6305968;28;19934;-50
2022/01/13 02:37:36;;;;;;;;;;;21.60;43.70;;;;;;6292418;28;20434;-50
2022/01/13 02:40:38;;;;;;;;;;;21.70;43.60;;;;;;6308107;28;19923;-50
2022/01/13 02:43:40;;;;;;;;;;;21.50;43.60;;;;;;6311160;28;19958;-49
2022/01/13 02:49:55;;;;;;;;;;;21.80;43.60;;;;;;6301560;28;19927;-49
2022/01/13 02:52:57;;;;;;;;;;;21.60;43.60;;;;;;6311958;28;19933;-48
2022/01/13 02:56:04;;;;;;;;;;;21.60;43.60;;;;;;6299001;28;20507;-48
2022/01/13 02:59:06;;;;;;;;;;;21.60;43.50;;;;;;6295699;28;20046;-46
2022/01/13 03:02:08;;;;;;;;;;;21.60;43.60;;;;;;6308454;28;19931;-51
2022/01/13 03:05:13;;;;;;;;;;;21.60;43.60;;;;;;6309444;28;19924;-48
2022/01/13 03:08:15;;;;;;;;;;;21.30;43.40;;;;;;6306271;28;20311;-50
2022/01/13 03:11:17;;;;;;;;;;;21.90;43.80;;;;;;6303355;28;20006;-51
2022/01/13 03:14:19;;;;;;;;;;;21.70;43.80;;;;;;6302147;28;20517;-47
2022/01/13 03:17:20;;;;;;;;;;;21.30;43.50;;;;;;6305170;28;19930;-49
2022/01/13 03:20:22;;;;;;;;;;;21.20;43.30;;;;;;6303350;28;20104;-44
2022/01/13 03:23:25;;;;;;;;;;;21.70;43.60;;;;;;6303070;28;19927;-46
2022/01/13 03:26:26;;;;;;;;;;;21.50;43.40;;;;;;6288433;28;19923;-49
2022/01/13 03:29:31;;;;;;;;;;;21.30;43.50;;;;;;6307355;28;20453;-49
2022/01/13 03:32:33;;;;;;;;;;;21.60;43.50;;;;;;6306223;28;19930;-48
2022/01/13 03:35:36;;;;;;;;;;;21.50;43.50;;;;;;6291135;28;20422;-47
2022/01/13 03:38:39;;;;;;;;;;;21.70;43.50;;;;;;6303707;28;20634;-47
2022/01/13 03:41:41;;;;;;;;;;;21.50;43.40;;;;;;6312348;28;20770;-52
2022/01/13 03:44:43;;;;;;;;;;;21.60;43.60;;;;;;6302653;28;20622;-47
2022/01/13 03:47:45;;;;;;;;;;;21.50;43.40;;;;;;6314200;28;19933;-49
2022/01/13 03:50:46;;;;;;;;;;;21.10;43.10;;;;;;6305568;28;19938;-48
2022/01/13 03:54:03;;;;;;;;;;;21.30;43.50;;;;;;6310345;28;20380;-50
2022/01/13 03:57:20;;;;;;;;;;;21.40;43.40;;;;;;6294029;28;20292;-50
2022/01/13 04:00:41;;;;;;;;;;;21.60;43.60;;;;;;6313656;28;20427;-48
2022/01/13 04:03:46;;;;;;;;;;;21.50;43.40;;;;;;6276623;28;19927;-49
2022/01/13 04:06:48;;;;;;;;;;;21.60;43.50;;;;;;6307346;28;19930;-53
2022/01/13 04:10:04;;;;;;;;;;;21.20;43.30;;;;;;6309971;28;19924;-52
2022/01/13 04:13:11;;;;;;;;;;;21.60;43.60;;;;;;6299686;28;20775;-48
2022/01/13 04:16:13;;;;;;;;;;;21.40;43.40;;;;;;6312063;28;19966;-45
2022/01/13 04:19:15;;;;;;;;;;;21.20;43.40;;;;;;6313004;28;20462;-47
2022/01/13 04:22:19;;;;;;;;;;;21.70;43.60;;;;;;6306649;28;20531;-48
2022/01/13 04:25:22;;;;;;;;;;;21.70;43.60;;;;;;6290100;28;19923;-50
2022/01/13 04:28:26;;;;;;;;;;;21.20;43.40;;;;;;6313796;28;19923;-47
2022/01/13 04:31:29;;;;;;;;;;;21.40;43.30;;;;;;6311474;28;19924;-50
2022/01/13 04:34:31;;;;;;;;;;;21.20;43.30;;;;;;6313153;28;19928;-45
2022/01/13 04:37:33;;;;;;;;;;;21.50;43.50;;;;;;6304504;28;20016;-50
2022/01/13 04:40:42;;;;;;;;;;;21.40;43.30;;;;;;6309900;28;19924;-47
2022/01/13 04:43:44;;;;;;;;;;;21.70;43.50;;;;;;6314799;28;20453;-48
2022/01/13 04:46:47;;;;;;;;;;;21.60;43.60;;;;;;6317176;28;19928;-46
2022/01/13 04:49:49;;;;;;;;;;;21.10;43.30;;;;;;6292750;28;20381;-49
2022/01/13 04:52:51;;;;;;;;;;;21.20;43.40;;;;;;6321702;28;19927;-47
2022/01/13 04:55:57;;;;;;;;;;;21.10;43.30;;;;;;6310116;28;20653;-45
2022/01/13 04:59:04;;;;;;;;;;;21.10;43.00;;;;;;6316151;27;21413;-50
2022/01/13 05:02:05;;;;;;;;;;;21.20;43.20;;;;;;6312343;28;20196;-53
2022/01/13 05:05:07;;;;;;;;;;;21.50;43.60;;;;;;6317205;28;19923;-45
2022/01/13 05:08:10;;;;;;;;;;;21.30;43.20;;;;;;6313044;28;19923;-46
2022/01/13 05:11:11;;;;;;;;;;;21.50;43.40;;;;;;6311816;28;19984;-48
2022/01/13 05:14:13;;;;;;;;;;;21.50;43.50;;;;;;6309250;28;21214;-50
2022/01/13 05:17:44;;;;;;;;;;;21.30;43.30;;;;;;6312636;28;19935;-45
2022/01/13 05:20:50;;;;;;;;;;;21.20;43.40;;;;;;6300549;28;20043;-48
2022/01/13 05:23:52;;;;;;;;;;;21.20;43.20;;;;;;6313288;28;19970;-48
2022/01/13 05:26:53;;;;;;;;;;;21.40;43.40;;;;;;6312204;28;20813;-48
2022/01/13 05:29:55;;;;;;;;;;;21.40;43.40;;;;;;6312379;28;20046;-46
2022/01/13 05:32:57;;;;;;;;;;;21.30;43.40;;;;;;6319057;28;19919;-46
2022/01/13 05:36:00;;;;;;;;;;;21.60;43.50;;;;;;6307385;28;19931;-47
2022/01/13 05:39:02;;;;;;;;;;;21.50;43.50;;;;;;6312584;28;19924;-45
2022/01/13 05:42:04;;;;;;;;;;;21.20;43.30;;;;;;6313037;28;19961;-50
2022/01/13 05:45:13;;;;;;;;;;;21.50;43.40;;;;;;6305978;28;20116;-50
2022/01/13 05:48:15;;;;;;;;;;;21.10;43.10;;;;;;6316433;28;19931;-48
2022/01/13 05:51:18;;;;;;;;;;;21.50;43.30;;;;;;6315770;28;19967;-48
2022/01/13 05:54:19;;;;;;;;;;;21.00;43.20;;;;;;6310124;28;19968;-47
2022/01/13 05:57:20;;;;;;;;;;;21.20;43.30;;;;;;6304364;28;20010;-46
2022/01/13 06:00:23;;;;;;;;;;;21.10;43.20;;;;;;6299713;28;20038;-46
2022/01/13 06:03:24;;;;;;;;;;;21.30;43.30;;;;;;6305812;28;20914;-45
2022/01/13 06:06:26;;;;;;;;;;;21.10;43.20;;;;;;6308327;28;20046;-45
2022/01/13 06:09:28;;;;;;;;;;;21.00;43.20;;;;;;6308870;28;20628;-47
2022/01/13 06:12:32;;;;;;;;;;;21.20;43.30;;;;;;6307983;28;19928;-47
2022/01/13 06:15:37;;;;;;;;;;;21.40;43.40;;;;;;6300614;28;19962;-46
2022/01/13 06:18:38;;;;;;;;;;;21.20;43.30;;;;;;6300454;28;20696;-49
2022/01/13 06:21:39;;;;;;;;;;;21.00;43.20;;;;;;6307993;28;19923;-48
2022/01/13 06:24:41;;;;;;;;;;;21.10;43.20;;;;;;6313124;28;19923;-48
2022/01/13 06:27:42;;;;;;;;;;;21.20;43.30;;;;;;6308478;28;19924;-45
2022/01/13 06:31:04;;;;;;;;;;;21.20;43.30;;;;;;6295684;28;19992;-48
2022/01/13 06:34:06;;;;;;;;;;;20.90;43.10;;;;;;6306953;28;19927;-46
2022/01/13 06:37:07;;;;;;;;;;;21.10;43.20;;;;;;6301787;28;19955;-46
2022/01/13 06:40:10;;;;;;;;;;;21.20;43.30;;;;;;6296955;28;19927;-50
2022/01/13 06:43:11;;;;;;;;;;;21.10;43.10;;;;;;6280722;28;19923;-48
2022/01/13 06:46:15;;;;;;;;;;;21.80;43.50;;;;;;6306536;28;19934;-45
2022/01/13 06:49:17;;;;;;;;;;;21.00;43.00;;;;;;6287813;28;19931;-45
2022/01/13 06:52:18;;;;;;;;;;;21.10;43.00;;;;;;6303297;28;19924;-48
2022/01/13 06:55:20;;;;;;;;;;;21.20;43.00;;;;;;6307272;28;20768;-49
2022/01/13 06:58:21;;;;;;;;;;;21.10;42.90;;;;;;6307012;28;19967;-50
2022/01/13 07:01:23;;;;;;;;;;;21.10;42.80;;;;;;6255401;28;19993;-45
2022/01/13 07:04:26;;;;;;;;;;;21.00;42.70;;;;;;6280336;28;19969;-47
2022/01/13 07:07:32;;;;;;;;;;;21.50;43.00;;;;;;6274073;28;20057;-49
2022/01/13 07:10:40;;;;;;;;;;;21.10;42.70;;;;;;6268826;28;19935;-46
2022/01/13 07:13:41;;;;;;;;;;;21.50;42.80;;;;;;6243508;28;19920;-44
2022/01/13 07:16:44;;;;;;;;;;;21.70;42.90;;;;;;6257261;28;19935;-44
2022/01/13 07:19:46;;;;;;;;;;;21.40;42.80;;;;;;6256964;28;20631;-45
2022/01/13 07:22:48;;;;;;;;;;;21.50;42.70;;;;;;6262273;28;19928;-47
2022/01/13 07:25:50;;;;;;;;;;;21.20;42.50;;;;;;6264427;28;20057;-42
2022/01/13 07:28:51;;;;;;;;;;;21.40;43.20;;;;;;6258562;28;19974;-45
2022/01/13 07:31:58;;;;;;;;;;;21.30;42.50;;;;;;6264475;28;19920;-45
2022/01/13 07:35:00;;;;;;;;;;;21.70;42.60;;;;;;6266198;28;19953;-48
2022/01/13 07:38:02;;;;;;;;;;;21.70;42.60;;;;;;6248472;28;19934;-44
2022/01/13 07:41:03;;;;;;;;;;;21.70;42.70;;;;;;6254629;28;19927;-44
2022/01/13 07:44:06;;;;;;;;;;;21.50;42.50;;;;;;6244644;28;20005;-45
2022/01/13 07:47:08;;;;;;;;;;;21.30;42.30;;;;;;6222969;28;20038;-42
2022/01/13 07:50:10;;;;;;;;;;;21.50;42.40;;;;;;6225319;28;19931;-42
2022/01/13 07:53:12;;;;;;;;;;;21.60;42.40;;;;;;6232041;28;20058;-43
2022/01/13 07:56:13;;;;;;;;;;;21.40;42.30;;;;;;6211949;28;19928;-42
2022/01/13 07:59:14;;;;;;;;;;;21.90;42.50;;;;;;6212998;28;19934;-42
2022/01/13 08:02:16;;;;;;;;;;;21.40;42.30;;;;;;6197924;28;19934;-42
2022/01/13 08:05:18;;;;;;;;;;;21.70;42.70;;;;;;6201365;28;20838;-41
2022/01/13 08:08:19;;;;;;;;;;;21.80;43.20;;;;;;6199851;28;21397;-41
2022/01/13 08:11:21;;;;;;;;;;;21.50;43.60;;;;;;6210395;28;19934;-45
2022/01/13 08:14:22;;;;;;;;;;;21.20;43.90;;;;;;6217990;28;20136;-41
2022/01/13 08:20:37;;;;;;;;;;;20.60;43.80;;;;;;6223740;28;20034;-41
2022/01/13 08:23:39;;;;;;;;;;;20.60;44.00;;;;;;6224009;28;19935;-41
2022/01/13 08:26:40;;;;;;;;;;;21.00;44.30;;;;;;6214534;28;20005;-41
2022/01/13 08:29:41;;;;;;;;;;;20.80;45.00;;;;;;6205804;28;19963;-42
2022/01/13 08:32:43;;;;;;;;;;;20.40;45.60;;;;;;6199914;28;20058;-46
2022/01/13 08:35:45;;;;;;;;;;;20.30;44.70;;;;;;6202104;28;19927;-42
2022/01/13 08:38:49;;;;;;;;;;;20.60;45.00;;;;;;6200322;28;19953;-47
2022/01/13 08:41:50;;;;;;;;;;;20.40;44.20;;;;;;6206095;28;19927;-44
2022/01/13 08:44:52;;;;;;;;;;;21.00;44.10;;;;;;6198722;28;20007;-42
2022/01/13 08:47:54;;;;;;;;;;;20.60;43.90;;;;;;6186066;28;20001;-43
2022/01/13 08:50:55;;;;;;;;;;;21.10;43.90;;;;;;6191493;28;20066;-45
2022/01/13 08:53:57;;;;;;;;;;;21.30;43.80;;;;;;6195012;28;20070;-42
2022/01/13 08:56:59;;;;;;;;;;;21.10;43.40;;;;;;6174447;28;20988;-41
2022/01/13 09:00:01;;;;;;;;;;;21.40;43.50;;;;;;6188589;28;20075;-47
2022/01/13 09:03:07;;;;;;;;;;;20.90;43.00;;;;;;6152094;28;23030;-41
2022/01/13 09:06:08;;;;;;;;;;;21.40;43.10;;;;;;6197436;28;19934;-41
2022/01/13 09:09:09;;;;;;;;;;;21.60;43.30;;;;;;6208496;28;20001;-40
2022/01/13 09:12:11;;;;;;;;;;;21.10;43.00;;;;;;6203414;28;19928;-42
2022/01/13 09:15:16;;;;;;;;;;;21.20;42.70;;;;;;6193084;28;21672;-46
2022/01/13 09:18:30;;;;;;;;;;;21.70;43.00;;;;;;6212219;28;19935;-44
2022/01/13 09:21:37;;;;;;;;;;;21.70;42.90;;;;;;6207816;28;19937;-41
2022/01/13 09:24:38;;;;;;;;;;;21.40;42.60;;;;;;6181269;28;22690;-41
2022/01/13 09:27:40;;;;;;;;;;;21.40;42.60;;;;;;6222880;28;19924;-41
2022/01/13 09:30:42;;;;;;;;;;;21.40;42.60;;;;;;6201615;28;19927;-40
2022/01/13 09:33:44;;;;;;;;;;;21.70;42.70;;;;;;6181826;28;19928;-45
2022/01/13 09:36:45;;;;;;;;;;;21.80;42.70;;;;;;6193510;28;20993;-47
2022/01/13 09:39:47;;;;;;;;;;;21.80;42.60;;;;;;6185918;28;21251;-43
2022/01/13 09:42:48;;;;;;;;;;;22.10;42.70;;;;;;6186914;28;19928;-44
2022/01/13 09:45:52;;;;;;;;;;;21.60;42.50;;;;;;6193598;28;20375;-41
2022/01/13 09:48:55;;;;;;;;;;;22.10;42.50;;;;;;6188102;28;22156;-46
2022/01/13 09:51:56;;;;;;;;;;;21.70;42.20;;;;;;6182250;28;24396;-43
2022/01/13 09:54:57;;;;;;;;;;;21.70;42.20;;;;;;6158952;28;20049;-42
2022/01/13 09:58:03;;;;;;;;;;;21.60;42.20;;;;;;6174083;28;19968;-41
2022/01/13 10:01:04;;;;;;;;;;;22.20;42.40;;;;;;6150743;28;19934;-42
2022/01/13 10:04:09;;;;;;;;;;;21.80;42.10;;;;;;6144152;28;20021;-44
2022/01/13 10:07:13;;;;;;;;;;;21.60;41.90;;;;;;6150353;28;20641;-44
2022/01/13 10:10:16;;;;;;;;;;;21.80;42.00;;;;;;6145857;28;19935;-43
2022/01/13 10:13:28;;;;;;;;;;;21.80;42.00;;;;;;6161141;28;20069;-43
2022/01/13 10:16:29;;;;;;;;;;;21.70;41.80;;;;;;6148802;28;19928;-45
2022/01/13 10:19:33;;;;;;;;;;;22.00;42.00;;;;;;6148788;28;20083;-42
2022/01/13 10:22:35;;;;;;;;;;;22.40;42.10;;;;;;6188444;28;21963;-45
2022/01/13 10:25:38;;;;;;;;;;;22.20;42.10;;;;;;6202181;28;19935;-43
2022/01/13 10:28:40;;;;;;;;;;;21.70;41.70;;;;;;6176376;28;19928;-40
2022/01/13 10:31:43;;;;;;;;;;;21.90;41.90;;;;;;6200571;28;19927;-43
2022/01/13 10:34:46;;;;;;;;;;;21.60;41.50;;;;;;6190753;28;20001;-48
2022/01/13 10:37:48;;;;;;;;;;;22.20;42.00;;;;;;6205138;27;19927;-41
2022/01/13 10:40:52;;;;;;;;;;;22.20;42.00;;;;;;6191682;28;19934;-44
2022/01/13 10:44:08;;;;;;;;;;;21.90;41.80;;;;;;6172791;28;19928;-41
2022/01/13 10:47:10;;;;;;;;;;;22.20;41.90;;;;;;6177165;27;20054;-41
2022/01/13 10:50:13;;;;;;;;;;;22.30;42.00;;;;;;6192867;28;20244;-43
2022/01/13 10:53:16;;;;;;;;;;;22.00;41.60;;;;;;6195500;28;19928;-48
2022/01/13 10:56:18;;;;;;;;;;;22.20;41.70;;;;;;6180601;28;19971;-41
2022/01/13 10:59:33;;;;;;;;;;;22.30;41.80;;;;;;6193915;28;20062;-45
2022/01/13 11:02:35;;;;;;;;;;;22.00;42.20;;;;;;6172810;28;19928;-43
2022/01/13 11:05:39;;;;;;;;;;;22.20;41.70;;;;;;6209390;28;19934;-41
2022/01/13 11:08:43;;;;;;;;;;;22.40;41.70;;;;;;6200994;28;19928;-44
2022/01/13 11:11:56;;;;;;;;;;;22.10;41.50;;;;;;6161936;28;21721;-44
2022/01/13 11:15:03;;;;;;;;;;;22.50;41.70;;;;;;6195134;28;19928;-42
2022/01/13 11:18:05;;;;;;;;;;;22.40;41.70;;;;;;6163850;28;20332;-45
2022/01/13 11:21:07;;;;;;;;;;;22.40;41.60;;;;;;6210370;28;21132;-45
2022/01/13 11:24:08;;;;;;;;;;;22.40;41.60;;;;;;6215921;28;19928;-44
2022/01/13 11:27:10;;;;;;;;;;;22.30;41.50;;;;;;6205505;28;20848;-45
2022/01/13 11:30:13;;;;;;;;;;;22.40;41.50;;;;;;6194430;28;19928;-42
2022/01/13 11:33:14;;;;;;;;;;;22.10;41.40;;;;;;6212944;28;19935;-41
2022/01/13 11:36:18;;;;;;;;;;;22.50;41.70;;;;;;6226446;28;19927;-44
2022/01/13 11:39:35;;;;;;;;;;;22.20;41.30;;;;;;6232610;28;19927;-48
2022/01/13 11:42:44;;;;;;;;;;;22.50;41.50;;;;;;6223611;28;20030;-45
2022/01/13 11:45:47;;;;;;;;;;;22.50;41.40;;;;;;6233436;28;19928;-45
2022/01/13 11:48:55;;;;;;;;;;;22.50;41.50;;;;;;6229721;27;19928;-47
2022/01/13 11:51:58;;;;;;;;;;;22.30;41.30;;;;;;6241258;28;19927;-44
2022/01/13 11:55:18;;;;;;;;;;;22.60;41.40;;;;;;6217523;28;21021;-44
2022/01/13 11:58:41;;;;;;;;;;;22.50;41.30;;;;;;6217920;28;19935;-44
2022/01/13 12:01:42;;;;;;;;;;;22.50;41.30;;;;;;6228533;28;20040;-45
2022/01/13 12:04:58;;;;;;;;;;;22.10;41.10;;;;;;6241711;28;21154;-43
2022/01/13 12:08:01;;;;;;;;;;;22.30;41.10;;;;;;6239984;28;19928;-44
2022/01/13 12:11:03;;;;;;;;;;;22.10;41.00;;;;;;6253853;28;20042;-46
2022/01/13 12:14:19;;;;;;;;;;;22.50;41.30;;;;;;6259384;28;19933;-45
2022/01/13 12:17:25;;;;;;;;;;;22.10;41.00;;;;;;6216036;28;20548;-43
2022/01/13 12:20:38;;;;;;;;;;;22.60;41.30;;;;;;6241247;28;19941;-48
2022/01/13 12:23:42;;;;;;;;;;;22.70;41.10;;;;;;6239519;28;19932;-43
2022/01/13 12:26:44;;;;;;;;;;;22.60;41.20;;;;;;6240492;28;19928;-48
2022/01/13 12:29:47;;;;;;;;;;;22.20;40.90;;;;;;6253745;28;19959;-42
2022/01/13 12:32:49;;;;;;;;;;;22.20;40.90;;;;;;6236879;28;20864;-45
2022/01/13 12:35:51;;;;;;;;;;;23.00;41.40;;;;;;6227273;28;20004;-45
2022/01/13 12:38:58;;;;;;;;;;;22.40;41.00;;;;;;6236246;28;20506;-46
2022/01/13 12:42:02;;;;;;;;;;;22.90;41.20;;;;;;6234852;28;20042;-42
2022/01/13 12:48:18;;;;;;;;;;;22.30;40.90;;;;;;6231984;28;19927;-43
2022/01/13 12:51:20;;;;;;;;;;;22.30;40.90;;;;;;6230447;28;19969;-44
2022/01/13 12:54:22;;;;;;;;;;;22.70;41.00;;;;;;6207386;28;19928;-45
2022/01/13 12:57:24;;;;;;;;;;;22.40;40.90;;;;;;6223852;28;22857;-47
2022/01/13 13:00:25;;;;;;;;;;;22.30;40.90;;;;;;6210438;28;21231;-42
2022/01/13 13:03:27;;;;;;;;;;;22.80;41.10;;;;;;6185276;28;19934;-45
2022/01/13 13:06:29;;;;;;;;;;;22.80;41.00;;;;;;6211258;28;20166;-44
2022/01/13 13:09:31;;;;;;;;;;;22.50;40.90;;;;;;6200740;28;19935;-43
2022/01/13 13:12:35;;;;;;;;;;;22.90;41.00;;;;;;6200548;28;19928;-46
2022/01/13 13:15:40;;;;;;;;;;;22.50;40.80;;;;;;6178527;28;19927;-43
2022/01/13 13:18:41;;;;;;;;;;;22.30;40.80;;;;;;6197897;28;20066;-46
2022/01/13 13:21:45;;;;;;;;;;;22.60;40.90;;;;;;6199890;28;20942;-45
2022/01/13 13:24:47;;;;;;;;;;;23.10;41.10;;;;;;6201616;28;21400;-42
2022/01/13 13:27:48;;;;;;;;;;;23.00;41.00;;;;;;6210486;28;19969;-46
2022/01/13 13:30:50;;;;;;;;;;;22.50;40.80;;;;;;6215690;28;20046;-45
2022/01/13 13:34:14;;;;;;;;;;;22.70;40.80;;;;;;6207935;28;19927;-44
2022/01/13 13:37:16;;;;;;;;;;;22.60;40.80;;;;;;6215959;28;19933;-45
2022/01/13 13:40:20;;;;;;;;;;;22.80;40.90;;;;;;6210038;28;21433;-47
2022/01/13 13:43:29;;;;;;;;;;;22.60;40.80;;;;;;6211409;28;19928;-43
2022/01/13 13:46:30;;;;;;;;;;;22.30;40.60;;;;;;6203392;28;19931;-44
2022/01/13 13:49:32;;;;;;;;;;;22.50;40.70;;;;;;6209697;28;20012;-42
2022/01/13 13:52:33;;;;;;;;;;;22.90;41.00;;;;;;6203757;28;19928;-41
2022/01/13 13:55:36;;;;;;;;;;;22.50;40.70;;;;;;6210226;28;19934;-41
2022/01/13 13:58:38;;;;;;;;;;;22.70;40.90;;;;;;6194043;28;19934;-42
2022/01/13 14:01:40;;;;;;;;;;;22.50;40.70;;;;;;6203615;28;19927;-41
2022/01/13 14:05:08;;;;;;;;;;;22.90;40.90;;;;;;6208676;28;19928;-41
2022/01/13 14:08:09;;;;;;;;;;;22.70;40.70;;;;;;6209415;28;20063;-44
2022/01/13 14:11:11;;;;;;;;;;;22.50;40.70;;;;;;6216811;28;20055;-41
2022/01/13 14:14:14;;;;;;;;;;;23.00;40.90;;;;;;6192262;28;20108;-45
2022/01/13 14:17:28;;;;;;;;;;;23.10;40.90;;;;;;6214757;28;19934;-47
2022/01/13 14:20:29;;;;;;;;;;;22.70;41.30;;;;;;6178562;28;20046;-42
2022/01/13 14:23:31;;;;;;;;;;;22.60;40.60;;;;;;6192798;28;19995;-43
2022/01/13 14:26:34;;;;;;;;;;;22.70;40.70;;;;;;6177617;28;19934;-42
2022/01/13 14:29:36;;;;;;;;;;;22.80;40.70;;;;;;6164212;28;20032;-42
2022/01/13 14:32:37;;;;;;;;;;;22.70;40.60;;;;;;6176915;28;21486;-44
2022/01/13 14:35:38;;;;;;;;;;;22.40;40.50;;;;;;6195415;28;19934;-45
2022/01/13 14:38:43;;;;;;;;;;;22.70;40.70;;;;;;6210935;28;19927;-43
2022/01/13 14:41:46;;;;;;;;;;;22.80;40.70;;;;;;6213078;28;19928;-47
2022/01/13 14:44:47;;;;;;;;;;;23.00;40.70;;;;;;6205705;28;19928;-44
2022/01/13 14:47:50;;;;;;;;;;;22.60;40.60;;;;;;6209523;28;20987;-46
2022/01/13 14:50:51;;;;;;;;;;;23.30;40.90;;;;;;6180543;28;20185;-44
2022/01/13 14:53:52;;;;;;;;;;;22.40;40.40;;;;;;6208989;28;19928;-43
2022/01/13 14:56:54;;;;;;;;;;;22.90;40.80;;;;;;6222070;28;20096;-42
2022/01/13 14:59:57;;;;;;;;;;;22.80;40.60;;;;;;6215656;28;19957;-45
2022/01/13 15:02:58;;;;;;;;;;;22.70;40.60;;;;;;6199994;28;21271;-42
2022/01/13 15:05:59;;;;;;;;;;;22.50;40.40;;;;;;6208094;28;19932;-44
2022/01/13 15:09:01;;;;;;;;;;;22.50;40.40;;;;;;6207949;28;19934;-46
2022/01/13 15:12:03;;;;;;;;;;;22.60;40.50;;;;;;6192088;28;20050;-42
2022/01/13 15:15:06;;;;;;;;;;;22.90;40.80;;;;;;6215876;28;19981;-45
2022/01/13 15:18:08;;;;;;;;;;;22.50;40.50;;;;;;6212071;28;22283;-47
2022/01/13 15:21:09;;;;;;;;;;;22.70;40.60;;;;;;6216311;28;19927;-46
2022/01/13 15:24:10;;;;;;;;;;;22.50;40.60;;;;;;6197872;28;19931;-44
2022/01/13 15:27:12;;;;;;;;;;;22.80;40.70;;;;;;6211780;28;21117;-43
2022/01/13 15:30:14;;;;;;;;;;;22.40;40.40;;;;;;6206564;28;19975;-42
2022/01/13 15:33:16;;;;;;;;;;;22.90;40.70;;;;;;6174607;28;19928;-43
2022/01/13 15:36:18;;;;;;;;;;;22.90;40.70;;;;;;6204192;28;19971;-42
2022/01/13 15:39:20;;;;;;;;;;;22.80;40.70;;;;;;6225974;28;19928;-43
2022/01/13 15:42:22;;;;;;;;;;;22.70;40.80;;;;;;6214408;28;19935;-43
2022/01/13 15:45:24;;;;;;;;;;;22.50;40.60;;;;;;6186665;28;20186;-42
2022/01/13 15:48:25;;;;;;;;;;;22.50;40.70;;;;;;6201465;28;20046;-42
2022/01/13 15:51:27;;;;;;;;;;;22.90;40.80;;;;;;6196560;28;19963;-42
2022/01/13 15:54:28;;;;;;;;;;;22.70;40.70;;;;;;6177428;28;20827;-42
2022/01/13 15:57:31;;;;;;;;;;;22.70;40.70;;;;;;6173885;28;20417;-43
2022/01/13 16:00:32;;;;;;;;;;;22.70;40.70;;;;;;6185131;28;20041;-42
2022/01/13 16:03:34;;;;;;;;;;;22.80;40.70;;;;;;6163921;28;19934;-45
2022/01/13 16:06:35;;;;;;;;;;;22.80;40.80;;;;;;6200940;28;19936;-45
2022/01/13 16:09:37;;;;;;;;;;;22.70;40.70;;;;;;6208172;28;19975;-45
2022/01/13 16:12:39;;;;;;;;;;;22.80;40.80;;;;;;6204263;28;19997;-43
2022/01/13 16:15:40;;;;;;;;;;;22.50;40.60;;;;;;6189472;28;20058;-45
2022/01/13 16:18:43;;;;;;;;;;;22.60;40.70;;;;;;6204727;28;20932;-46
2022/01/13 16:21:44;;;;;;;;;;;22.70;40.70;;;;;;6205106;28;19931;-44
2022/01/13 16:24:46;;;;;;;;;;;22.80;40.80;;;;;;6200703;28;20231;-45
2022/01/13 16:27:48;;;;;;;;;;;22.40;40.60;;;;;;6178651;28;19934;-48
2022/01/13 16:30:52;;;;;;;;;;;22.70;40.70;;;;;;6175445;28;20703;-42
2022/01/13 16:33:53;;;;;;;;;;;22.50;40.60;;;;;;6189260;28;20337;-47
2022/01/13 16:36:55;;;;;;;;;;;22.50;40.70;;;;;;6180567;28;20372;-46
2022/01/13 16:40:02;;;;;;;;;;;22.50;40.60;;;;;;6188269;28;20800;-45
2022/01/13 16:43:07;;;;;;;;;;;22.50;40.60;;;;;;6185884;28;19928;-45
2022/01/13 16:46:09;;;;;;;;;;;22.40;40.60;;;;;;6204223;28;20371;-43
2022/01/13 16:49:11;;;;;;;;;;;22.50;40.60;;;;;;6197648;28;19937;-46
2022/01/13 16:52:13;;;;;;;;;;;22.80;40.70;;;;;;6208592;28;20205;-43
2022/01/13 16:55:15;;;;;;;;;;;22.90;40.80;;;;;;6160543;28;20413;-47
2022/01/13 16:58:24;;;;;;;;;;;22.40;40.60;;;;;;6191459;28;20449;-44
2022/01/13 17:01:25;;;;;;;;;;;22.70;40.70;;;;;;6217816;28;20831;-42
2022/01/13 17:04:27;;;;;;;;;;;22.40;40.60;;;;;;6212756;28;19928;-45
2022/01/13 17:07:29;;;;;;;;;;;22.40;40.60;;;;;;6229073;28;19927;-43
2022/01/13 17:10:32;;;;;;;;;;;22.70;40.70;;;;;;6227953;28;21779;-43
2022/01/13 17:13:34;;;;;;;;;;;22.70;40.70;;;;;;6240661;28;19923;-44
2022/01/13 17:16:36;;;;;;;;;;;22.30;40.50;;;;;;6233802;28;19931;-42
2022/01/13 17:19:39;;;;;;;;;;;22.40;40.60;;;;;;6226715;28;19975;-42
2022/01/13 17:23:00;;;;;;;;;;;22.40;40.60;;;;;;6224120;28;21860;-43
2022/01/13 17:26:01;;;;;;;;;;;22.70;40.80;;;;;;6239087;28;20827;-45
2022/01/13 17:29:03;;;;;;;;;;;22.50;40.60;;;;;;6242293;28;20058;-43
2022/01/13 17:32:05;;;;;;;;;;;22.70;40.70;;;;;;6241176;28;20054;-44
2022/01/13 17:35:06;;;;;;;;;;;22.40;40.60;;;;;;6223654;28;20046;-46
2022/01/13 17:38:08;;;;;;;;;;;22.40;40.60;;;;;;6246574;28;19927;-46
2022/01/13 17:41:09;;;;;;;;;;;22.60;40.70;;;;;;6243507;28;20042;-44
2022/01/13 17:44:11;;;;;;;;;;;22.70;40.90;;;;;;6253013;28;19928;-45
2022/01/13 17:47:17;;;;;;;;;;;22.30;40.50;;;;;;6261881;28;19993;-47
2022/01/13 17:50:18;;;;;;;;;;;22.50;40.60;;;;;;6245748;28;20191;-46
2022/01/13 17:53:20;;;;;;;;;;;22.60;40.60;;;;;;6244169;28;19934;-46
2022/01/13 17:56:21;;;;;;;;;;;22.90;40.80;;;;;;6261755;28;21001;-44